Details for United Airlines at KSFO




Go Back


Latest METAR
Local Time

KSFO 180556Z 29010KT 10SM FEW002 FEW008 13/11 A3004 RMK AO2 SLP172 T01280111 10194 20128 51012 $
17/08/2018, 23:28:12

Description
Results
United Airlines Logo
Number of Pilots based at KSFO
0 Pilots Based here
Number of United Airlines Flights Departed from KSFO
4 Flights Departed
Number of United Airlines Flights Arrived at KSFO
5 Flights Arrived
Number of United Airlines Schedules Departing from KSFO
441 Schedules
Number of United Airlines Schedules Arriving at KSFO
424 Schedules
Number of United Airlines Schedules Departing from KSFO availible today
250 Schedules Today
Number of United Airlines Schedules Arriving at KSFO availible today
230 Schedules Today
Average Landing Rate at KSFO
-260 fpm
United Airlines Average Landing Rate at KSFO
-234 fpm
Total Fuel Purchased at KSFO by United Airlines
15,750.59 kgs / 34,723.75 lbs

Pilots Based at KSFO


Pilot ID
Pilot Name
Pilot Rank
No. of Flights
No. of Flying Hours
There are no pilots assigned to this hub!   Will you be the first?
Content